Time;durP1;ratioP1;P1;durP2;ratioP2;P2;SDS_P1;SDS_P2;PMS_P1;PMS_P2;Temp;Humidity;BMP_temperature;BMP_pressure;BME280_temperature;BME280_humidity;BME280_pressure;Samples;Min_cycle;Max_cycle;Signal;HPM_P1;HPM_P2
2023/05/17 00:00:29;;;;;;;12.55;3.70;;;9.20;99.90;;;;;;5006542;28;20050;-84
2023/05/17 00:02:56;;;;;;;8.43;3.58;;;9.20;99.90;;;;;;5013795;28;20057;-85
2023/05/17 00:05:23;;;;;;;10.02;3.55;;;9.20;99.90;;;;;;5009800;28;20492;-84
2023/05/17 00:07:50;;;;;;;9.85;4.53;;;9.20;99.90;;;;;;5013757;28;20081;-84
2023/05/17 00:10:17;;;;;;;7.53;3.53;;;9.20;99.90;;;;;;5018819;28;20069;-84
2023/05/17 00:12:43;;;;;;;6.20;3.65;;;9.20;99.90;;;;;;5014723;28;20042;-84
2023/05/17 00:15:10;;;;;;;8.23;4.55;;;9.20;99.90;;;;;;5014060;28;20105;-84
2023/05/17 00:17:37;;;;;;;7.20;3.80;;;9.20;99.90;;;;;;5018232;28;20045;-84
2023/05/17 00:20:05;;;;;;;7.90;3.83;;;9.20;99.90;;;;;;5015182;28;20057;-84
2023/05/17 00:22:32;;;;;;;6.00;3.85;;;9.20;99.90;;;;;;5014949;28;20120;-85
2023/05/17 00:24:58;;;;;;;11.85;4.10;;;9.20;99.90;;;;;;5015815;28;20506;-84
2023/05/17 00:27:25;;;;;;;10.05;4.10;;;9.20;99.90;;;;;;5026598;28;20042;-85
2023/05/17 00:29:52;;;;;;;7.85;4.05;;;9.20;99.90;;;;;;5042968;28;20046;-86
2023/05/17 00:32:19;;;;;;;12.00;3.83;;;9.10;99.90;;;;;;5023917;28;20038;-84
2023/05/17 00:34:45;;;;;;;11.35;4.15;;;9.10;99.90;;;;;;5018698;28;20057;-83
2023/05/17 00:37:12;;;;;;;10.20;4.20;;;9.10;99.90;;;;;;5014508;28;20050;-83
2023/05/17 00:39:39;;;;;;;7.95;3.95;;;9.10;99.90;;;;;;5016949;28;20111;-81
2023/05/17 00:42:06;;;;;;;13.13;4.30;;;9.10;99.90;;;;;;5014941;28;20049;-84
2023/05/17 00:44:33;;;;;;;10.98;4.25;;;9.10;99.90;;;;;;5023387;28;20054;-83
2023/05/17 00:47:01;;;;;;;11.98;4.47;;;9.10;99.90;;;;;;5017987;28;20078;-84
2023/05/17 00:49:28;;;;;;;7.82;3.88;;;9.10;99.90;;;;;;5019530;28;20057;-84
2023/05/17 00:51:55;;;;;;;9.75;4.32;;;9.10;99.90;;;;;;5012378;28;20046;-83
2023/05/17 00:54:22;;;;;;;8.38;4.05;;;9.10;99.90;;;;;;5018152;28;20068;-84
2023/05/17 00:56:49;;;;;;;10.15;3.80;;;9.00;99.90;;;;;;5016998;28;20105;-84
2023/05/17 00:59:16;;;;;;;6.57;4.10;;;9.00;99.90;;;;;;5024950;28;20508;-84
2023/05/17 01:01:43;;;;;;;7.97;3.90;;;9.00;99.90;;;;;;5019178;28;20073;-82
2023/05/17 01:04:10;;;;;;;6.18;4.32;;;9.00;99.90;;;;;;5020046;28;20046;-83
2023/05/17 01:06:37;;;;;;;6.38;3.67;;;9.00;99.90;;;;;;5021163;28;20107;-84
2023/05/17 01:09:05;;;;;;;8.15;4.20;;;9.00;99.90;;;;;;5016443;28;20046;-84
2023/05/17 01:12:10;;;;;;;10.93;4.28;;;9.00;99.90;;;;;;5022164;28;20049;-84
2023/05/17 01:15:04;;;;;;;5.65;3.63;;;9.00;99.90;;;;;;5019297;28;20050;-84
2023/05/17 01:18:02;;;;;;;9.15;4.05;;;9.00;99.90;;;;;;5034767;28;20062;-84
2023/05/17 01:20:42;;;;;;;13.65;3.80;;;9.00;99.90;;;;;;5018659;28;20057;-83
2023/05/17 01:23:15;;;;;;;;;;;8.90;99.90;;;;;;5019749;28;20489;-85
2023/05/17 01:25:54;;;;;;;10.82;3.80;;;8.90;99.90;;;;;;5023159;28;19922;-85
2023/05/17 01:28:22;;;;;;;9.38;3.55;;;8.90;99.90;;;;;;5022743;28;20050;-85
2023/05/17 01:30:50;;;;;;;6.50;3.97;;;9.00;99.90;;;;;;5019642;28;20042;-85
2023/05/17 01:33:19;;;;;;;9.20;3.40;;;9.00;99.90;;;;;;5021594;28;20053;-85
2023/05/17 01:35:46;;;;;;;8.07;3.30;;;9.00;99.90;;;;;;5024153;28;20115;-85
2023/05/17 01:38:15;;;;;;;8.70;3.78;;;9.00;99.90;;;;;;5031333;28;20105;-85
2023/05/17 01:40:55;;;;;;;10.90;3.60;;;9.10;99.90;;;;;;5033237;28;20046;-86
2023/05/17 01:43:35;;;;;;;7.32;3.97;;;9.00;99.90;;;;;;5023023;28;20107;-85
2023/05/17 01:46:10;;;;;;;9.23;3.15;;;9.00;99.90;;;;;;5020620;28;20085;-85
2023/05/17 01:48:42;;;;;;;12.98;3.67;;;9.10;99.90;;;;;;5022370;28;20119;-85
2023/05/17 01:51:15;;;;;;;11.93;4.20;;;9.10;99.90;;;;;;5018064;28;20053;-84
2023/05/17 01:53:47;;;;;;;7.30;3.78;;;9.10;99.90;;;;;;5024182;28;20077;-85
2023/05/17 01:56:29;;;;;;;8.45;3.00;;;9.10;99.90;;;;;;5021069;28;20042;-84
2023/05/17 01:58:58;;;;;;;6.00;3.30;;;9.00;99.90;;;;;;5018019;28;20054;-84
2023/05/17 02:01:27;;;;;;;6.75;3.50;;;9.10;99.90;;;;;;5023737;28;20056;-85
2023/05/17 02:03:54;;;;;;;10.25;4.03;;;9.00;99.90;;;;;;5019836;28;20058;-84
2023/05/17 02:06:21;;;;;;;10.80;3.35;;;9.00;99.90;;;;;;5019693;28;20118;-85
2023/05/17 02:08:48;;;;;;;8.25;3.53;;;9.10;99.90;;;;;;5017595;28;20057;-84
2023/05/17 02:11:14;;;;;;;6.55;3.00;;;8.80;99.90;;;;;;5024764;28;20069;-84
2023/05/17 02:13:41;;;;;;;9.45;3.17;;;8.80;99.90;;;;;;5027008;28;20046;-84
2023/05/17 02:16:08;;;;;;;9.60;3.20;;;8.80;99.90;;;;;;5022228;28;20120;-85
2023/05/17 02:18:36;;;;;;;7.78;3.40;;;8.80;99.90;;;;;;5025740;28;20420;-84
2023/05/17 02:21:03;;;;;;;9.32;3.63;;;8.80;99.90;;;;;;5020700;28;20050;-87
2023/05/17 02:23:30;;;;;;;6.78;3.67;;;8.90;99.90;;;;;;5023124;28;20050;-86
2023/05/17 02:25:57;;;;;;;5.88;3.20;;;8.90;99.90;;;;;;5018466;28;20046;-84
2023/05/17 02:28:23;;;;;;;8.45;3.40;;;8.90;99.90;;;;;;5036866;28;20057;-84
2023/05/17 02:30:51;;;;;;;12.38;3.67;;;8.90;99.90;;;;;;5022131;28;20060;-84
2023/05/17 02:33:18;;;;;;;7.43;3.42;;;8.90;99.90;;;;;;5028923;28;20060;-88
2023/05/17 02:35:45;;;;;;;8.65;3.53;;;8.80;99.90;;;;;;5026528;28;20038;-83
2023/05/17 02:38:12;;;;;;;8.63;3.50;;;8.80;99.90;;;;;;5014784;28;20046;-83
2023/05/17 02:40:40;;;;;;;10.18;4.63;;;8.80;99.90;;;;;;5013204;28;20049;-85
2023/05/17 02:43:07;;;;;;;6.65;3.75;;;8.80;99.90;;;;;;5017123;28;20046;-84
2023/05/17 02:45:34;;;;;;;6.82;3.22;;;8.80;99.90;;;;;;5022171;28;20489;-84
2023/05/17 02:48:01;;;;;;;7.95;3.00;;;8.80;99.90;;;;;;5018161;28;20493;-85
2023/05/17 02:50:27;;;;;;;11.75;3.13;;;8.70;99.90;;;;;;5035900;28;20080;-84
2023/05/17 02:52:54;;;;;;;8.70;2.58;;;8.80;99.90;;;;;;5016053;28;20046;-84
2023/05/17 02:55:21;;;;;;;4.90;2.97;;;8.70;99.90;;;;;;5021441;28;20050;-84
2023/05/17 02:57:48;;;;;;;8.65;3.60;;;8.70;99.90;;;;;;5020425;28;20116;-85
2023/05/17 03:00:15;;;;;;;5.03;2.38;;;8.60;99.90;;;;;;5022596;28;20043;-84
2023/05/17 03:02:42;;;;;;;6.13;2.70;;;8.60;99.90;;;;;;5030898;28;20069;-85
2023/05/17 03:05:09;;;;;;;8.70;2.80;;;8.60;99.90;;;;;;5020201;28;20082;-84
2023/05/17 03:07:36;;;;;;;5.22;2.60;;;8.50;99.90;;;;;;5025775;28;20045;-84
2023/05/17 03:10:03;;;;;;;4.72;2.90;;;8.50;99.90;;;;;;5023432;28;20045;-83
2023/05/17 03:12:30;;;;;;;6.55;3.03;;;8.40;99.90;;;;;;5015786;28;20069;-84
2023/05/17 03:14:56;;;;;;;9.95;3.35;;;8.40;99.90;;;;;;5018896;28;20046;-85
2023/05/17 03:17:23;;;;;;;5.50;2.97;;;8.40;99.90;;;;;;5036885;28;20120;-85
2023/05/17 03:19:50;;;;;;;6.78;3.22;;;8.30;99.90;;;;;;5023940;28;20045;-86
2023/05/17 03:22:17;;;;;;;7.97;3.28;;;8.30;99.90;;;;;;5019297;28;20061;-85
2023/05/17 03:24:44;;;;;;;13.10;3.65;;;8.20;99.90;;;;;;5021799;28;20088;-85
2023/05/17 03:27:11;;;;;;;5.47;3.15;;;8.20;99.90;;;;;;5020867;28;20130;-84
2023/05/17 03:29:37;;;;;;;9.43;3.20;;;8.20;99.90;;;;;;5028025;28;20050;-85
2023/05/17 03:32:05;;;;;;;7.70;3.00;;;8.20;99.90;;;;;;5027491;28;20081;-86
2023/05/17 03:34:31;;;;;;;6.95;3.17;;;8.10;99.90;;;;;;5021764;28;20050;-85
2023/05/17 03:36:59;;;;;;;8.30;3.22;;;8.00;99.90;;;;;;5037246;28;20046;-84
2023/05/17 03:39:26;;;;;;;6.88;3.00;;;7.90;99.90;;;;;;5025946;28;20054;-84
2023/05/17 03:41:52;;;;;;;9.02;3.40;;;7.90;99.90;;;;;;5026168;28;20100;-83
2023/05/17 03:44:19;;;;;;;9.27;3.30;;;7.80;99.90;;;;;;5019727;28;20057;-84
2023/05/17 03:46:46;;;;;;;5.82;3.25;;;7.70;99.90;;;;;;5018702;28;20046;-84
2023/05/17 03:49:13;;;;;;;8.68;3.58;;;7.70;99.90;;;;;;5031801;28;20057;-83
2023/05/17 03:51:40;;;;;;;6.90;3.63;;;7.60;99.90;;;;;;5021868;28;20105;-84
2023/05/17 03:54:07;;;;;;;9.90;3.92;;;7.60;99.90;;;;;;5025191;28;20069;-83
2023/05/17 03:56:33;;;;;;;7.13;3.63;;;7.40;99.90;;;;;;5019783;28;20056;-85
2023/05/17 03:59:00;;;;;;;14.02;4.13;;;7.30;99.90;;;;;;5033107;28;20041;-86
2023/05/17 04:01:27;;;;;;;7.07;3.58;;;7.30;99.90;;;;;;5022671;28;20046;-82
2023/05/17 04:03:53;;;;;;;8.90;3.92;;;7.20;99.90;;;;;;5017803;28;20037;-84
2023/05/17 04:06:20;;;;;;;9.15;3.80;;;7.20;99.90;;;;;;5010939;28;20042;-83
2023/05/17 04:08:47;;;;;;;15.30;4.47;;;7.10;99.90;;;;;;5024771;28;20050;-82
2023/05/17 04:11:14;;;;;;;13.75;5.00;;;7.10;99.90;;;;;;5009769;28;20061;-84
2023/05/17 04:13:41;;;;;;;12.30;4.53;;;7.10;99.90;;;;;;5019940;28;20038;-84
2023/05/17 04:16:09;;;;;;;12.18;4.93;;;7.00;99.90;;;;;;5022268;28;20053;-86
2023/05/17 04:18:37;;;;;;;14.48;5.45;;;7.00;99.90;;;;;;5019002;28;20078;-86
2023/05/17 04:21:04;;;;;;;14.32;5.30;;;7.00;99.90;;;;;;5022916;28;20042;-83
2023/05/17 04:23:32;;;;;;;10.15;4.88;;;6.90;99.90;;;;;;5023070;28;20129;-84
2023/05/17 04:25:59;;;;;;;10.18;5.05;;;6.90;99.90;;;;;;5017468;28;20497;-82
2023/05/17 04:28:26;;;;;;;9.27;4.40;;;7.00;99.90;;;;;;5011182;28;20441;-83
2023/05/17 04:30:55;;;;;;;10.68;4.18;;;7.00;99.90;;;;;;5009975;28;20045;-83
2023/05/17 04:33:23;;;;;;;12.73;5.45;;;7.10;99.90;;;;;;5010131;28;20057;-84
2023/05/17 04:35:53;;;;;;;10.88;4.07;;;7.10;99.90;;;;;;5025978;28;20042;-86
2023/05/17 04:38:20;;;;;;;8.77;3.63;;;7.10;99.90;;;;;;5008865;28;20126;-84
2023/05/17 04:40:47;;;;;;;13.00;3.83;;;7.20;99.90;;;;;;5017905;28;20116;-83
2023/05/17 04:43:14;;;;;;;10.48;3.85;;;7.20;99.90;;;;;;5035945;28;20412;-85
2023/05/17 04:45:41;;;;;;;14.13;3.35;;;7.20;99.90;;;;;;5019067;28;20049;-84
2023/05/17 04:48:07;;;;;;;9.95;3.38;;;7.10;99.90;;;;;;5029909;28;20091;-84
2023/05/17 04:50:34;;;;;;;8.90;2.95;;;7.20;99.90;;;;;;5018276;28;20106;-84
2023/05/17 04:53:01;;;;;;;5.00;2.80;;;7.30;99.90;;;;;;5016072;28;20045;-85
2023/05/17 04:55:28;;;;;;;7.28;2.63;;;7.30;99.90;;;;;;5016819;28;20071;-84
2023/05/17 04:57:55;;;;;;;4.70;2.72;;;7.30;99.90;;;;;;5011204;28;20049;-85
2023/05/17 05:00:22;;;;;;;7.75;2.95;;;7.40;99.90;;;;;;5015329;28;20069;-87
2023/05/17 05:02:49;;;;;;;8.30;2.65;;;7.50;99.90;;;;;;5010872;28;20172;-85
2023/05/17 05:05:16;;;;;;;6.15;2.55;;;7.50;99.90;;;;;;5018941;28;20472;-83
2023/05/17 05:07:43;;;;;;;6.35;2.55;;;7.50;99.90;;;;;;5020835;28;20108;-85
2023/05/17 05:10:09;;;;;;;9.43;3.15;;;7.60;99.90;;;;;;5016968;28;20053;-82
2023/05/17 05:12:36;;;;;;;9.70;2.45;;;7.60;99.90;;;;;;5017166;28;20038;-86
2023/05/17 05:15:04;;;;;;;8.02;2.67;;;7.70;99.90;;;;;;5023588;28;20042;-86
2023/05/17 05:17:32;;;;;;;7.55;2.47;;;7.70;99.90;;;;;;5020125;28;20049;-84
2023/05/17 05:19:59;;;;;;;6.82;2.45;;;7.70;99.90;;;;;;5020505;28;20066;-84
2023/05/17 05:22:26;;;;;;;6.20;2.35;;;7.80;99.90;;;;;;5012711;28;20046;-84
2023/05/17 05:24:52;;;;;;;7.50;2.85;;;7.80;99.90;;;;;;5018592;28;20078;-82
2023/05/17 05:27:19;;;;;;;3.58;2.33;;;7.90;99.90;;;;;;5013704;28;20509;-85
2023/05/17 05:29:46;;;;;;;6.18;2.20;;;7.90;99.90;;;;;;5018744;28;20125;-85
2023/05/17 05:32:14;;;;;;;4.78;2.22;;;7.90;99.90;;;;;;5009323;28;20113;-84
2023/05/17 05:34:40;;;;;;;8.43;2.35;;;8.00;99.90;;;;;;5009778;28;20041;-84
2023/05/17 05:37:07;;;;;;;7.07;2.60;;;8.00;99.90;;;;;;5011119;28;20097;-85
2023/05/17 05:39:34;;;;;;;6.90;2.30;;;8.00;99.90;;;;;;5010187;28;20046;-85
2023/05/17 05:42:03;;;;;;;10.15;2.22;;;8.00;99.90;;;;;;5016085;28;20046;-84
2023/05/17 05:44:30;;;;;;;3.40;2.17;;;8.00;99.90;;;;;;5012841;28;20085;-84
2023/05/17 05:46:57;;;;;;;4.57;1.90;;;8.10;99.90;;;;;;5009598;28;20050;-83
2023/05/17 05:49:23;;;;;;;9.63;2.42;;;8.10;99.90;;;;;;5011665;28;20133;-86
2023/05/17 05:51:50;;;;;;;4.82;1.98;;;8.10;99.90;;;;;;5013671;28;20100;-85
2023/05/17 05:54:17;;;;;;;5.65;2.58;;;8.10;99.90;;;;;;5015750;28;20049;-85
2023/05/17 05:56:44;;;;;;;6.85;2.17;;;8.10;99.90;;;;;;5015985;28;20038;-85
2023/05/17 05:59:10;;;;;;;6.43;1.90;;;8.10;99.90;;;;;;5007753;28;20429;-85
2023/05/17 06:01:37;;;;;;;4.90;2.20;;;8.10;99.90;;;;;;5012176;28;20144;-85
2023/05/17 06:04:04;;;;;;;5.43;3.05;;;8.20;99.90;;;;;;5012018;28;20056;-86
2023/05/17 06:06:31;;;;;;;8.25;1.83;;;8.30;99.90;;;;;;5011330;28;20046;-85
2023/05/17 06:08:58;;;;;;;6.68;2.72;;;8.30;99.90;;;;;;5021377;28;20381;-83
2023/05/17 06:11:25;;;;;;;5.15;2.35;;;8.30;99.90;;;;;;5029047;28;20402;-86
2023/05/17 06:13:52;;;;;;;6.45;1.90;;;8.30;99.90;;;;;;5012785;28;20054;-85
2023/05/17 06:16:19;;;;;;;6.13;2.00;;;8.30;99.90;;;;;;5017441;28;20057;-85
2023/05/17 06:18:45;;;;;;;5.85;2.30;;;8.40;99.90;;;;;;5015876;28;20118;-85
2023/05/17 06:21:17;;;;;;;6.55;2.20;;;8.40;99.90;;;;;;5015236;28;20046;-86
2023/05/17 06:23:44;;;;;;;6.65;2.65;;;8.50;99.90;;;;;;5017418;28;20050;-86
2023/05/17 06:26:11;;;;;;;8.23;2.25;;;8.60;99.90;;;;;;5017005;28;20080;-86
2023/05/17 06:28:37;;;;;;;6.13;2.08;;;8.60;99.90;;;;;;5018312;28;20053;-84
2023/05/17 06:31:04;;;;;;;6.88;2.35;;;8.70;99.90;;;;;;5017482;28;20544;-85
2023/05/17 06:33:31;;;;;;;9.30;2.30;;;8.80;99.90;;;;;;5014060;28;20120;-86
2023/05/17 06:35:58;;;;;;;4.28;1.73;;;8.80;99.90;;;;;;5007907;28;20057;-85
2023/05/17 06:38:26;;;;;;;6.93;2.45;;;8.80;99.90;;;;;;5032446;28;20077;-85
2023/05/17 06:40:54;;;;;;;8.70;2.33;;;8.80;99.90;;;;;;5014806;28;20112;-84
2023/05/17 06:43:23;;;;;;;8.35;2.78;;;8.90;99.90;;;;;;5015285;28;20100;-86
2023/05/17 06:45:50;;;;;;;4.70;1.65;;;9.00;99.90;;;;;;5016996;28;20049;-86
2023/05/17 06:48:17;;;;;;;9.70;2.03;;;9.00;99.90;;;;;;5018807;28;20050;-85
2023/05/17 06:50:44;;;;;;;7.80;1.90;;;9.10;99.90;;;;;;5010446;28;20074;-85
2023/05/17 06:53:11;;;;;;;3.60;1.90;;;9.10;99.90;;;;;;5005261;28;20104;-86
2023/05/17 06:55:38;;;;;;;9.40;2.20;;;9.20;99.90;;;;;;5009227;28;20084;-85
2023/05/17 06:58:04;;;;;;;6.60;2.00;;;9.30;99.90;;;;;;5012855;28;20077;-86
2023/05/17 07:00:31;;;;;;;6.28;1.77;;;9.40;99.90;;;;;;5028168;28;20073;-85
2023/05/17 07:02:59;;;;;;;5.15;1.35;;;9.40;99.90;;;;;;5016281;28;20042;-85
2023/05/17 07:05:27;;;;;;;8.52;1.52;;;9.40;99.90;;;;;;5016679;28;20092;-85
2023/05/17 07:07:55;;;;;;;5.75;1.83;;;9.50;99.90;;;;;;5029028;28;20057;-86
2023/05/17 07:10:22;;;;;;;8.70;1.90;;;9.50;99.90;;;;;;5021320;28;20469;-87
2023/05/17 07:12:48;;;;;;;4.88;1.40;;;9.60;99.90;;;;;;5021810;28;20095;-82
2023/05/17 07:15:15;;;;;;;4.53;1.70;;;9.60;99.90;;;;;;5011724;28;20054;-85
2023/05/17 07:17:42;;;;;;;4.32;1.58;;;9.70;99.90;;;;;;5007804;28;20049;-84
2023/05/17 07:20:09;;;;;;;5.57;1.65;;;9.80;99.90;;;;;;5014738;28;20125;-86
2023/05/17 07:22:37;;;;;;;8.35;2.20;;;9.90;99.90;;;;;;5036381;28;20046;-85
2023/05/17 07:25:04;;;;;;;4.10;1.45;;;9.90;99.90;;;;;;5015125;28;20081;-85
2023/05/17 07:27:31;;;;;;;5.90;2.20;;;10.00;99.90;;;;;;5011268;28;20097;-85
2023/05/17 07:30:00;;;;;;;5.03;1.50;;;10.00;99.90;;;;;;5007390;28;20493;-85
2023/05/17 07:32:27;;;;;;;5.00;1.60;;;10.10;99.90;;;;;;5009168;28;20104;-85
2023/05/17 07:34:53;;;;;;;4.82;1.50;;;10.10;99.90;;;;;;5012546;28;20054;-85
2023/05/17 07:37:22;;;;;;;10.40;1.92;;;10.20;99.90;;;;;;5008682;28;20133;-83
2023/05/17 07:39:48;;;;;;;8.35;1.95;;;10.20;99.90;;;;;;5007676;28;20088;-85
2023/05/17 07:42:15;;;;;;;3.92;1.45;;;10.30;99.90;;;;;;5005469;28;20465;-83
2023/05/17 07:44:42;;;;;;;4.47;1.52;;;10.40;99.90;;;;;;5011911;28;20053;-84
2023/05/17 07:47:08;;;;;;;3.90;1.35;;;10.40;99.90;;;;;;5007732;28;20054;-85
2023/05/17 07:49:35;;;;;;;6.53;1.67;;;10.40;99.90;;;;;;5033076;28;20070;-85
2023/05/17 07:52:02;;;;;;;5.95;1.42;;;10.50;99.90;;;;;;5008205;28;20096;-87
2023/05/17 07:54:30;;;;;;;5.18;1.35;;;10.50;99.90;;;;;;5014791;28;20424;-86
2023/05/17 07:56:58;;;;;;;4.95;1.50;;;10.60;99.90;;;;;;5012461;28;20125;-85
2023/05/17 07:59:25;;;;;;;7.90;1.63;;;10.60;99.90;;;;;;5013647;28;20049;-85
2023/05/17 08:01:52;;;;;;;5.80;1.63;;;10.70;99.90;;;;;;5011813;28;20046;-84
2023/05/17 08:04:19;;;;;;;4.50;1.50;;;10.70;99.90;;;;;;5013452;28;20077;-87
2023/05/17 08:06:47;;;;;;;5.88;1.77;;;10.80;99.90;;;;;;5028453;28;20052;-85
2023/05/17 08:09:16;;;;;;;8.15;1.90;;;10.80;99.90;;;;;;5016489;28;20046;-85
2023/05/17 08:11:46;;;;;;;9.38;1.52;;;10.90;99.90;;;;;;5014947;28;20069;-85
2023/05/17 08:14:16;;;;;;;6.05;2.08;;;10.90;99.90;;;;;;5010643;28;20048;-85
2023/05/17 08:16:44;;;;;;;7.93;1.70;;;11.00;99.90;;;;;;5011909;28;20054;-86
2023/05/17 08:19:14;;;;;;;6.82;1.90;;;11.10;99.90;;;;;;5012936;28;20146;-86
2023/05/17 08:21:45;;;;;;;7.30;1.98;;;11.20;99.90;;;;;;5011405;28;20054;-84
2023/05/17 08:24:11;;;;;;;8.18;1.80;;;11.20;99.90;;;;;;5015675;28;20128;-86
2023/05/17 08:26:39;;;;;;;6.25;1.60;;;11.30;99.90;;;;;;5010392;28;20058;-85
2023/05/17 08:29:06;;;;;;;7.47;1.73;;;11.40;99.90;;;;;;5009337;28;20054;-85
2023/05/17 08:31:33;;;;;;;6.55;1.70;;;11.40;99.90;;;;;;5017942;28;20136;-84
2023/05/17 08:34:00;;;;;;;4.90;1.63;;;11.40;99.90;;;;;;5014299;28;20037;-84
2023/05/17 08:36:27;;;;;;;4.00;1.70;;;11.40;99.90;;;;;;5002841;28;20083;-86
2023/05/17 08:38:54;;;;;;;5.93;1.80;;;11.40;99.90;;;;;;5013528;28;20050;-85
2023/05/17 08:41:21;;;;;;;5.78;1.73;;;11.50;99.90;;;;;;5030496;28;20042;-85
2023/05/17 08:43:49;;;;;;;3.10;1.30;;;11.50;99.90;;;;;;5009646;28;20096;-85
2023/05/17 08:46:20;;;;;;;7.00;1.90;;;11.50;99.90;;;;;;5015055;28;20462;-85
2023/05/17 08:48:50;;;;;;;4.07;1.70;;;11.50;99.90;;;;;;5006578;28;20089;-85
2023/05/17 08:51:20;;;;;;;;;;;11.50;99.90;;;;;;5010455;28;20117;-85
2023/05/17 08:53:49;;;;;;;6.18;2.00;;;11.60;99.90;;;;;;5008578;28;19928;-85
2023/05/17 08:56:18;;;;;;;4.93;1.77;;;11.70;99.90;;;;;;5006789;28;20039;-85
2023/05/17 08:58:47;;;;;;;3.92;2.05;;;11.80;99.90;;;;;;5010239;28;20069;-86
2023/05/17 09:01:17;;;;;;;5.63;1.98;;;11.90;99.90;;;;;;5030252;28;20438;-87
2023/05/17 09:03:50;;;;;;;7.05;1.80;;;12.00;99.90;;;;;;5018256;28;20049;-86
2023/05/17 09:06:20;;;;;;;3.17;1.70;;;12.10;99.90;;;;;;5016902;28;20137;-85
2023/05/17 09:08:51;;;;;;;8.25;2.03;;;12.20;99.90;;;;;;5010508;28;20053;-86
2023/05/17 09:11:29;;;;;;;6.40;2.05;;;12.30;99.90;;;;;;5028904;28;20093;-84
2023/05/17 09:14:01;;;;;;;3.60;1.75;;;12.40;99.90;;;;;;5010480;28;20133;-87
2023/05/17 09:16:30;;;;;;;7.93;1.90;;;12.50;99.90;;;;;;5014701;28;20042;-85
2023/05/17 09:18:58;;;;;;;4.93;1.92;;;12.50;99.90;;;;;;5015122;28;20050;-86
2023/05/17 09:21:27;;;;;;;2.75;1.85;;;12.50;99.90;;;;;;5008871;28;20069;-85
2023/05/17 09:23:54;;;;;;;2.05;1.38;;;12.40;99.90;;;;;;5014456;28;20054;-86
2023/05/17 09:26:44;;;;;;;3.55;1.73;;;12.30;99.90;;;;;;5011327;28;20481;-85
2023/05/17 09:29:13;;;;;;;3.28;1.80;;;12.30;99.90;;;;;;5008025;28;20045;-85
2023/05/17 09:31:41;;;;;;;3.80;1.60;;;12.40;99.90;;;;;;5013723;28;20050;-85
2023/05/17 09:34:08;;;;;;;3.72;1.70;;;12.50;99.90;;;;;;5015236;28;20460;-85
2023/05/17 09:36:37;;;;;;;5.00;1.70;;;12.70;99.90;;;;;;5014658;28;20100;-85
2023/05/17 09:39:09;;;;;;;5.43;2.10;;;12.90;99.90;;;;;;5014406;28;20050;-84
2023/05/17 09:41:44;;;;;;;5.10;1.95;;;12.80;99.90;;;;;;5010269;28;20054;-85
2023/05/17 09:44:12;;;;;;;5.63;2.42;;;12.80;99.90;;;;;;5010458;28;20074;-87
2023/05/17 09:46:44;;;;;;;4.28;1.80;;;12.70;99.90;;;;;;5011694;28;20047;-86
2023/05/17 09:49:12;;;;;;;10.52;2.78;;;12.70;99.90;;;;;;5012519;28;20050;-85
2023/05/17 09:51:41;;;;;;;10.52;2.08;;;12.70;99.90;;;;;;5006287;28;20061;-86
2023/05/17 09:54:09;;;;;;;3.97;1.73;;;12.80;99.90;;;;;;5007892;28;20133;-85
2023/05/17 09:56:36;;;;;;;6.22;1.58;;;12.90;99.90;;;;;;5016437;28;20046;-86
2023/05/17 09:59:09;;;;;;;3.63;1.92;;;12.90;99.90;;;;;;5011161;28;20525;-86
2023/05/17 10:01:39;;;;;;;5.20;1.90;;;12.90;99.90;;;;;;5012853;28;20058;-85
2023/05/17 10:04:09;;;;;;;3.65;1.88;;;13.00;99.90;;;;;;5017654;28;20092;-85
2023/05/17 10:06:41;;;;;;;6.50;2.17;;;13.10;99.90;;;;;;5014298;28;20052;-85
2023/05/17 10:09:20;;;;;;;3.83;1.83;;;13.30;99.90;;;;;;5003592;28;20069;-85
2023/05/17 10:11:49;;;;;;;3.00;1.63;;;13.40;99.90;;;;;;5013689;28;20046;-85
2023/05/17 10:14:27;;;;;;;4.65;2.22;;;13.60;99.90;;;;;;5013563;28;20679;-86
2023/05/17 10:16:55;;;;;;;5.93;2.25;;;13.70;99.90;;;;;;5011769;28;20046;-87
2023/05/17 10:19:24;;;;;;;5.72;2.20;;;13.70;99.90;;;;;;5006787;28;20564;-87
2023/05/17 10:21:53;;;;;;;4.25;1.98;;;13.60;99.90;;;;;;5008455;28;20046;-85
2023/05/17 10:24:21;;;;;;;6.35;1.92;;;13.50;99.90;;;;;;5006399;28;20100;-84
2023/05/17 10:26:52;;;;;;;5.03;2.28;;;13.30;99.90;;;;;;5022985;28;20084;-85
2023/05/17 10:29:19;;;;;;;4.32;2.35;;;13.30;99.90;;;;;;5007621;28;20135;-85
2023/05/17 10:31:49;;;;;;;6.25;2.25;;;13.40;99.90;;;;;;5010747;28;20077;-87
2023/05/17 10:34:18;;;;;;;5.28;2.08;;;13.40;99.90;;;;;;5012517;28;20132;-88
2023/05/17 10:36:47;;;;;;;5.35;2.22;;;13.40;99.90;;;;;;5007607;28;20084;-86
2023/05/17 10:39:15;;;;;;;4.07;2.03;;;13.40;99.90;;;;;;5007703;28;20042;-85
2023/05/17 10:41:45;;;;;;;9.63;1.98;;;13.40;99.90;;;;;;5011215;28;20137;-86
2023/05/17 10:44:14;;;;;;;5.65;2.40;;;13.20;99.90;;;;;;5011031;28;20468;-85
2023/05/17 10:46:56;;;;;;;5.72;2.08;;;13.20;99.90;;;;;;5014532;28;20073;-86
2023/05/17 10:49:25;;;;;;;2.78;1.52;;;13.20;99.90;;;;;;5009319;28;20053;-88
2023/05/17 10:51:53;;;;;;;3.17;1.70;;;13.30;99.90;;;;;;5017307;28;20056;-86
2023/05/17 10:54:20;;;;;;;3.70;1.77;;;13.40;99.90;;;;;;5024815;28;20046;-86
2023/05/17 10:56:48;;;;;;;6.50;2.15;;;13.50;99.90;;;;;;5013384;28;20101;-84
2023/05/17 10:59:21;;;;;;;5.72;2.42;;;13.50;99.90;;;;;;5012053;28;20100;-83
2023/05/17 11:01:57;;;;;;;8.35;2.22;;;13.50;99.90;;;;;;5013667;28;20104;-86
2023/05/17 11:04:40;;;;;;;8.98;2.72;;;13.50;99.90;;;;;;5005330;28;20057;-85
2023/05/17 11:07:20;;;;;;;8.18;3.10;;;13.50;99.90;;;;;;5008725;28;20042;-84
2023/05/17 11:10:04;;;;;;;6.43;2.50;;;13.50;99.90;;;;;;5012766;28;20073;-86
2023/05/17 11:12:37;;;;;;;8.02;2.42;;;13.60;99.90;;;;;;5008132;28;20171;-86
2023/05/17 11:15:07;;;;;;;4.72;2.20;;;13.60;99.90;;;;;;5011618;28;20136;-85
2023/05/17 11:17:35;;;;;;;5.13;2.08;;;13.70;99.90;;;;;;5014382;28;20050;-85
2023/05/17 11:20:05;;;;;;;3.60;2.25;;;13.80;99.90;;;;;;5012761;28;20092;-85
2023/05/17 11:22:41;;;;;;;5.40;2.13;;;13.70;99.90;;;;;;5009935;28;20066;-84
2023/05/17 11:25:12;;;;;;;4.82;2.05;;;13.70;99.90;;;;;;5011703;28;20052;-85
2023/05/17 11:27:50;;;;;;;5.72;2.28;;;13.80;99.90;;;;;;5004417;28;20054;-85
2023/05/17 11:30:27;;;;;;;7.03;3.17;;;13.80;99.90;;;;;;5012600;28;20054;-90
2023/05/17 11:32:59;;;;;;;8.43;2.70;;;13.90;99.90;;;;;;5041100;28;20084;-86
2023/05/17 11:35:28;;;;;;;5.93;2.13;;;14.00;99.90;;;;;;5010561;28;20054;-85
2023/05/17 11:38:18;;;;;;;8.55;2.35;;;14.20;99.90;;;;;;5011314;28;20049;-85
2023/05/17 11:40:47;;;;;;;5.45;2.10;;;14.10;99.90;;;;;;5014732;28;20053;-85
2023/05/17 11:43:20;;;;;;;6.15;2.28;;;14.20;99.90;;;;;;5010306;28;20046;-86
2023/05/17 11:45:56;;;;;;;8.52;2.70;;;14.30;99.90;;;;;;5011263;28;20490;-86
2023/05/17 11:48:25;;;;;;;6.38;2.42;;;14.30;99.90;;;;;;5010694;28;20084;-85
2023/05/17 11:50:54;;;;;;;4.05;2.10;;;14.20;99.90;;;;;;5009447;28;20042;-88
2023/05/17 11:53:21;;;;;;;9.35;2.88;;;14.20;99.90;;;;;;5009084;28;20063;-85
2023/05/17 11:55:49;;;;;;;5.75;2.33;;;14.30;99.90;;;;;;5007090;28;20113;-86
2023/05/17 11:58:18;;;;;;;7.63;2.20;;;14.20;99.90;;;;;;5004379;28;20070;-85
2023/05/17 12:00:52;;;;;;;5.60;2.35;;;14.10;99.90;;;;;;5014738;28;20046;-85
2023/05/17 12:03:23;;;;;;;8.25;3.38;;;14.20;99.90;;;;;;5015084;28;20394;-85
2023/05/17 12:06:19;;;;;;;6.93;2.63;;;14.20;99.90;;;;;;5014882;28;20065;-85
2023/05/17 12:08:53;;;;;;;5.07;3.00;;;14.20;99.90;;;;;;5014957;28;20053;-86
2023/05/17 12:11:20;;;;;;;4.20;2.20;;;14.20;99.90;;;;;;5014499;28;20070;-84
2023/05/17 12:13:47;;;;;;;6.47;2.30;;;14.20;99.90;;;;;;5012423;28;20049;-85
2023/05/17 12:16:19;;;;;;;4.85;2.10;;;14.20;99.90;;;;;;5013811;28;20053;-85
2023/05/17 12:18:48;;;;;;;5.03;2.17;;;14.30;99.90;;;;;;5009811;28;20460;-85
2023/05/17 12:21:20;;;;;;;2.78;1.63;;;14.40;99.90;;;;;;5012259;28;20080;-86
2023/05/17 12:23:50;;;;;;;5.22;2.58;;;14.50;99.90;;;;;;5008977;28;20058;-84
2023/05/17 12:26:20;;;;;;;5.90;2.20;;;14.60;99.90;;;;;;5014522;28;20054;-90
2023/05/17 12:28:54;;;;;;;3.40;2.05;;;14.60;99.90;;;;;;5012763;28;20548;-85
2023/05/17 12:31:35;;;;;;;3.92;2.17;;;14.60;99.90;;;;;;5011940;28;20050;-85
2023/05/17 12:34:14;;;;;;;5.63;2.30;;;14.60;99.90;;;;;;5007638;28;20046;-86
2023/05/17 12:36:42;;;;;;;4.13;2.13;;;14.60;99.90;;;;;;5009116;28;20047;-85
2023/05/17 12:39:11;;;;;;;7.82;2.70;;;14.60;99.90;;;;;;5016465;28;20077;-85
2023/05/17 12:41:38;;;;;;;4.47;2.38;;;14.50;99.90;;;;;;5015246;28;20081;-86
2023/05/17 12:44:09;;;;;;;4.57;2.50;;;14.40;99.90;;;;;;5011774;28;20054;-85
2023/05/17 12:46:41;;;;;;;8.68;2.03;;;14.40;99.90;;;;;;5017425;28;20053;-85
2023/05/17 12:49:09;;;;;;;6.25;2.13;;;14.30;99.90;;;;;;5022015;28;20448;-86
2023/05/17 12:51:43;;;;;;;6.82;2.15;;;14.30;99.90;;;;;;5010927;28;20050;-86
2023/05/17 12:54:23;;;;;;;4.95;2.20;;;14.30;99.90;;;;;;5017605;28;20041;-85
2023/05/17 12:56:50;;;;;;;5.60;2.35;;;14.40;99.90;;;;;;5012537;28;20097;-86
2023/05/17 12:59:19;;;;;;;3.67;2.22;;;14.40;99.90;;;;;;5020006;28;20046;-86
2023/05/17 13:01:49;;;;;;;3.28;2.00;;;14.50;99.90;;;;;;5014504;28;20082;-85